createdAt,value
2017-05-24T00:00:18.916Z,0
2017-05-24T00:01:29.184Z,0
2017-05-24T00:02:39.181Z,0
2017-05-24T00:03:49.161Z,0
2017-05-24T00:04:59.440Z,0
2017-05-24T00:06:09.665Z,0
2017-05-24T00:07:19.941Z,0
2017-05-24T00:08:29.919Z,0
2017-05-24T00:09:40.255Z,0
2017-05-24T00:10:50.542Z,0
2017-05-24T00:12:01.084Z,0
2017-05-24T00:13:11.361Z,0
2017-05-24T00:14:21.641Z,0
2017-05-24T00:15:31.615Z,0
2017-05-24T00:16:41.889Z,0
2017-05-24T00:17:51.799Z,0
2017-05-24T00:19:02.088Z,0
2017-05-24T00:20:12.370Z,0
2017-05-24T00:21:22.654Z,0
2017-05-24T00:22:32.633Z,0
2017-05-24T00:23:42.861Z,0
2017-05-24T00:24:52.828Z,0
2017-05-24T00:26:03.109Z,0
2017-05-24T00:27:13.391Z,0
2017-05-24T00:28:23.673Z,0
2017-05-24T00:29:33.891Z,0
2017-05-24T00:30:43.866Z,0
2017-05-24T00:31:54.147Z,0
2017-05-24T00:33:04.427Z,0
2017-05-24T00:34:15.003Z,0
2017-05-24T00:35:25.543Z,0
2017-05-24T00:36:35.822Z,0
2017-05-24T00:37:45.791Z,0
2017-05-24T00:38:55.766Z,0
2017-05-24T00:40:06.062Z,0
2017-05-24T00:41:16.590Z,0
2017-05-24T00:42:26.868Z,0
2017-05-24T00:43:36.837Z,0
2017-05-24T00:44:47.135Z,0
2017-05-24T00:45:57.417Z,0
2017-05-24T00:47:07.950Z,0
2017-05-24T00:48:17.933Z,0
2017-05-24T00:49:28.275Z,0
2017-05-24T00:50:38.246Z,0
2017-05-24T00:51:48.523Z,0
2017-05-24T00:52:59.076Z,0
2017-05-24T00:54:09.357Z,0
2017-05-24T00:55:19.934Z,0
2017-05-24T00:56:29.901Z,0
2017-05-24T00:57:39.567Z,0
2017-05-24T00:58:50.096Z,0
2017-05-24T01:00:00.059Z,0
2017-05-24T01:01:10.029Z,0
2017-05-24T01:02:19.686Z,0
2017-05-24T01:03:29.971Z,0
2017-05-24T01:04:40.507Z,0
2017-05-24T01:05:50.793Z,0
2017-05-24T01:07:01.078Z,0
2017-05-24T01:08:11.363Z,0
2017-05-24T01:09:21.326Z,0
2017-05-24T01:10:31.848Z,0
2017-05-24T01:11:42.135Z,0
2017-05-24T01:12:52.128Z,0
2017-05-24T01:14:02.489Z,0
2017-05-24T01:15:12.782Z,0
2017-05-24T01:16:23.315Z,0
2017-05-24T01:17:33.592Z,0
2017-05-24T01:18:43.871Z,0
2017-05-24T01:19:54.161Z,0
2017-05-24T01:21:04.445Z,0
2017-05-24T01:22:14.969Z,0
2017-05-24T01:23:25.271Z,0
2017-05-24T01:24:35.245Z,0
2017-05-24T01:25:45.518Z,0
2017-05-24T01:26:55.795Z,0
2017-05-24T01:28:06.030Z,0
2017-05-24T01:29:16.309Z,0
2017-05-24T01:30:26.585Z,0
2017-05-24T01:31:36.915Z,0
2017-05-24T01:32:47.216Z,0
2017-05-24T01:33:57.752Z,0
2017-05-24T01:35:08.041Z,0
2017-05-24T01:36:18.011Z,0
2017-05-24T01:37:27.982Z,0
2017-05-24T01:38:38.269Z,0
2017-05-24T01:39:48.490Z,0
2017-05-24T01:40:58.777Z,0
2017-05-24T01:42:09.047Z,0
2017-05-24T01:43:19.375Z,0
2017-05-24T01:44:29.347Z,0
2017-05-24T01:45:39.581Z,0
2017-05-24T01:46:49.546Z,0
2017-05-24T01:47:59.833Z,0
2017-05-24T01:49:09.790Z,0
2017-05-24T01:50:19.771Z,0
2017-05-24T01:51:29.992Z,0
2017-05-24T01:52:40.267Z,0
2017-05-24T01:53:50.549Z,0
2017-05-24T01:55:00.839Z,0
2017-05-24T01:56:11.123Z,0
2017-05-24T01:57:21.659Z,0
2017-05-24T01:58:31.632Z,0
2017-05-24T01:59:41.912Z,0
2017-05-24T02:00:52.196Z,0
2017-05-24T02:02:02.171Z,0
2017-05-24T02:03:12.713Z,0
2017-05-24T02:04:22.999Z,0
2017-05-24T02:05:33.286Z,0
2017-05-24T02:06:43.557Z,0
2017-05-24T02:07:53.217Z,0
2017-05-24T02:09:03.497Z,0
2017-05-24T02:10:13.482Z,0
2017-05-24T02:11:23.764Z,0
2017-05-24T02:12:33.728Z,0
2017-05-24T02:13:43.700Z,0
2017-05-24T02:14:53.920Z,0
2017-05-24T02:16:03.891Z,0
2017-05-24T02:17:14.171Z,0
2017-05-24T02:18:24.454Z,0
2017-05-24T02:19:34.737Z,0
2017-05-24T02:20:45.272Z,0
2017-05-24T02:21:55.556Z,0
2017-05-24T02:23:05.852Z,0
2017-05-24T02:24:16.131Z,0
2017-05-24T02:25:26.098Z,0
2017-05-24T02:26:36.678Z,0
2017-05-24T02:27:46.972Z,0
2017-05-24T02:28:57.257Z,0
2017-05-24T02:30:07.238Z,0
2017-05-24T02:31:17.523Z,0
2017-05-24T02:32:28.048Z,0
2017-05-24T02:33:38.322Z,0
2017-05-24T02:34:48.604Z,0
2017-05-24T02:35:58.575Z,0
2017-05-24T02:37:08.867Z,0
2017-05-24T02:38:18.453Z,0
2017-05-24T02:39:28.420Z,0
2017-05-24T02:40:38.388Z,0
2017-05-24T02:41:48.662Z,0
2017-05-24T02:42:58.637Z,0
2017-05-24T02:44:09.166Z,0
2017-05-24T02:45:19.131Z,0
2017-05-24T02:46:29.402Z,0
2017-05-24T02:47:39.694Z,0
2017-05-24T02:48:49.979Z,0
2017-05-24T02:50:00.510Z,0
2017-05-24T02:51:10.802Z,0
2017-05-24T02:52:21.089Z,0
2017-05-24T02:53:31.377Z,0
2017-05-24T02:54:41.667Z,0
2017-05-24T02:55:51.576Z,0
2017-05-24T02:57:01.555Z,0
2017-05-24T02:58:11.518Z,0
2017-05-24T02:59:21.228Z,0
2017-05-24T03:00:31.503Z,0
2017-05-24T03:01:42.044Z,0
2017-05-24T03:02:52.335Z,0
2017-05-24T03:04:02.615Z,0
2017-05-24T03:05:12.583Z,0
2017-05-24T03:06:22.867Z,0
2017-05-24T03:07:33.396Z,0
2017-05-24T03:08:43.675Z,0
2017-05-24T03:09:53.957Z,0
2017-05-24T03:11:04.245Z,0
2017-05-24T03:12:14.515Z,0
2017-05-24T03:13:24.738Z,0
2017-05-24T03:14:35.030Z,0
2017-05-24T03:15:45.345Z,5
2017-05-24T03:16:55.635Z,0
2017-05-24T03:18:05.919Z,0
2017-05-24T03:19:16.458Z,5
2017-05-24T03:20:26.732Z,5
2017-05-24T03:21:37.020Z,5
2017-05-24T03:22:46.988Z,5
2017-05-24T03:23:57.268Z,5
2017-05-24T03:25:07.803Z,5
2017-05-24T03:26:18.169Z,10
2017-05-24T03:27:28.452Z,10
2017-05-24T03:28:38.111Z,5
2017-05-24T03:29:48.389Z,5
2017-05-24T03:30:58.934Z,5
2017-05-24T03:32:08.898Z,5
2017-05-24T03:33:18.866Z,5
2017-05-24T03:34:29.148Z,5
2017-05-24T03:35:39.424Z,5
2017-05-24T03:36:49.953Z,5
2017-05-24T03:38:00.249Z,5
2017-05-24T03:39:10.531Z,10
2017-05-24T03:40:20.816Z,5
2017-05-24T03:41:30.774Z,5
2017-05-24T03:42:41.301Z,5
2017-05-24T03:43:51.284Z,5
2017-05-24T03:45:01.593Z,5
2017-05-24T03:46:11.879Z,10
2017-05-24T03:47:22.167Z,5
2017-05-24T03:48:32.709Z,5
2017-05-24T03:49:42.997Z,5
2017-05-24T03:50:53.270Z,5
2017-05-24T03:52:03.263Z,5
2017-05-24T03:53:13.550Z,5
2017-05-24T03:54:23.776Z,5
2017-05-24T03:55:33.781Z,5
2017-05-24T03:56:43.750Z,5
2017-05-24T03:57:54.029Z,5
2017-05-24T03:59:04.318Z,10
2017-05-24T04:00:14.845Z,10
2017-05-24T04:01:24.809Z,10
2017-05-24T04:02:35.101Z,10
2017-05-24T04:03:45.388Z,10
2017-05-24T04:04:55.050Z,10
2017-05-24T04:06:05.280Z,10
2017-05-24T04:07:15.565Z,10
2017-05-24T04:08:25.851Z,10
2017-05-24T04:09:36.146Z,15
2017-05-24T04:10:46.428Z,15
2017-05-24T04:11:56.967Z,10
2017-05-24T04:13:07.261Z,15
2017-05-24T04:14:17.545Z,15
2017-05-24T04:15:27.520Z,15
2017-05-24T04:16:37.801Z,20
2017-05-24T04:17:48.383Z,20
2017-05-24T04:18:58.668Z,25
2017-05-24T04:20:08.948Z,25
2017-05-24T04:21:19.227Z,25
2017-05-24T04:22:29.501Z,25
2017-05-24T04:23:40.037Z,20
2017-05-24T04:24:50.314Z,25
2017-05-24T04:26:00.593Z,20
2017-05-24T04:27:10.572Z,20
2017-05-24T04:28:20.856Z,20
2017-05-24T04:29:31.398Z,20
2017-05-24T04:30:41.746Z,20
2017-05-24T04:31:52.030Z,25
2017-05-24T04:33:02.319Z,20
2017-05-24T04:34:12.595Z,30
2017-05-24T04:35:23.127Z,30
2017-05-24T04:36:33.401Z,30
2017-05-24T04:37:43.689Z,25
2017-05-24T04:38:53.662Z,25
2017-05-24T04:40:03.954Z,25
2017-05-24T04:41:14.490Z,25
2017-05-24T04:42:24.767Z,20
2017-05-24T04:43:35.058Z,20
2017-05-24T04:44:45.033Z,20
2017-05-24T04:45:54.698Z,15
2017-05-24T04:47:05.257Z,15
2017-05-24T04:48:15.542Z,15
2017-05-24T04:49:25.825Z,15
2017-05-24T04:50:35.786Z,15
2017-05-24T04:51:46.062Z,15
2017-05-24T04:52:56.285Z,15
2017-05-24T04:54:06.566Z,20
2017-05-24T04:55:16.848Z,15
2017-05-24T04:56:27.124Z,25
2017-05-24T04:57:37.088Z,25
2017-05-24T04:58:47.613Z,20
2017-05-24T04:59:57.894Z,25
2017-05-24T05:01:08.187Z,25
2017-05-24T05:02:18.156Z,15
2017-05-24T05:03:28.127Z,20
2017-05-24T05:04:38.660Z,25
2017-05-24T05:05:48.637Z,25
2017-05-24T05:06:58.611Z,25
2017-05-24T05:08:08.279Z,30
2017-05-24T05:09:18.567Z,30
2017-05-24T05:10:28.792Z,25
2017-05-24T05:11:39.067Z,30
2017-05-24T05:12:49.361Z,30
2017-05-24T05:13:59.650Z,30
2017-05-24T05:15:09.924Z,30
2017-05-24T05:16:20.149Z,30
2017-05-24T05:17:30.432Z,20
2017-05-24T05:18:40.736Z,25
2017-05-24T05:19:51.026Z,20
2017-05-24T05:21:01.009Z,25
2017-05-24T05:22:11.228Z,25
2017-05-24T05:23:21.509Z,25
2017-05-24T05:24:31.788Z,25
2017-05-24T05:25:42.072Z,30
2017-05-24T05:26:52.048Z,25
2017-05-24T05:28:02.576Z,25
2017-05-24T05:29:12.882Z,20
2017-05-24T05:30:22.859Z,15
2017-05-24T05:31:32.828Z,15
2017-05-24T05:32:42.798Z,20
2017-05-24T05:33:53.028Z,25
2017-05-24T05:35:03.318Z,30
2017-05-24T05:36:13.605Z,20
2017-05-24T05:37:23.570Z,25
2017-05-24T05:38:33.842Z,20
2017-05-24T05:39:44.059Z,25
2017-05-24T05:40:54.047Z,25
2017-05-24T05:42:04.327Z,15
2017-05-24T05:43:14.299Z,20
2017-05-24T05:44:24.281Z,25
2017-05-24T05:45:34.827Z,25
2017-05-24T05:46:45.110Z,25
2017-05-24T05:47:55.094Z,35
2017-05-24T05:49:05.373Z,25
2017-05-24T05:50:15.361Z,25
2017-05-24T05:51:25.334Z,30
2017-05-24T05:52:35.615Z,30
2017-05-24T05:53:45.584Z,25
2017-05-24T05:54:55.869Z,20
2017-05-24T05:56:06.159Z,30
2017-05-24T05:57:16.690Z,30
2017-05-24T05:58:26.985Z,30
2017-05-24T05:59:36.962Z,30
2017-05-24T06:00:47.244Z,25
2017-05-24T06:01:57.527Z,30
2017-05-24T06:03:08.072Z,35
2017-05-24T06:04:17.752Z,25
2017-05-24T06:05:28.098Z,20
2017-05-24T06:06:38.394Z,20
2017-05-24T06:07:48.679Z,30
2017-05-24T06:08:58.907Z,20
2017-05-24T06:10:09.202Z,20
2017-05-24T06:11:19.165Z,20
2017-05-24T06:12:29.442Z,25
2017-05-24T06:13:39.414Z,20
2017-05-24T06:14:49.636Z,20
2017-05-24T06:15:59.623Z,25
2017-05-24T06:17:09.288Z,25
2017-05-24T06:18:19.418Z,25
2017-05-24T06:19:29.394Z,30
2017-05-24T06:20:39.939Z,30
2017-05-24T06:21:50.219Z,25
2017-05-24T06:23:00.494Z,30
2017-05-24T06:24:10.484Z,35
2017-05-24T06:25:20.466Z,35
2017-05-24T06:26:30.989Z,35
2017-05-24T06:27:40.967Z,40
2017-05-24T06:28:50.639Z,40
2017-05-24T06:30:00.920Z,35
2017-05-24T06:31:11.215Z,35
2017-05-24T06:32:21.750Z,50
2017-05-24T06:33:31.715Z,55
2017-05-24T06:34:41.382Z,55
2017-05-24T06:35:51.672Z,60
2017-05-24T06:37:01.954Z,60
2017-05-24T06:38:12.491Z,70
2017-05-24T06:39:22.773Z,60
2017-05-24T06:40:32.448Z,60
2017-05-24T06:41:42.739Z,65
2017-05-24T06:42:53.020Z,70
2017-05-24T06:44:02.937Z,70
2017-05-24T06:45:12.919Z,60
2017-05-24T06:46:22.900Z,65
2017-05-24T06:47:32.868Z,65
2017-05-24T06:48:42.841Z,60
2017-05-24T06:49:53.382Z,55
2017-05-24T06:51:03.663Z,55
2017-05-24T06:52:13.943Z,55
2017-05-24T06:53:24.234Z,55
2017-05-24T06:54:34.209Z,60
2017-05-24T06:55:44.749Z,60
2017-05-24T06:56:55.024Z,55
2017-05-24T06:58:05.312Z,55
2017-05-24T06:59:15.605Z,55
2017-05-24T07:00:25.572Z,55
2017-05-24T07:01:36.097Z,50
2017-05-24T07:02:46.393Z,50
2017-05-24T07:03:56.699Z,55
2017-05-24T07:05:06.675Z,65
2017-05-24T07:06:16.955Z,65
2017-05-24T07:07:27.173Z,65
2017-05-24T07:08:37.168Z,70
2017-05-24T07:09:47.451Z,90
2017-05-24T07:10:57.429Z,120
2017-05-24T07:12:07.728Z,145
2017-05-24T07:13:18.291Z,155
2017-05-24T07:14:28.582Z,155
2017-05-24T07:15:38.254Z,140
2017-05-24T07:16:48.542Z,140
2017-05-24T07:17:58.527Z,155
2017-05-24T07:19:09.068Z,165
2017-05-24T07:20:19.353Z,160
2017-05-24T07:21:29.634Z,165
2017-05-24T07:22:39.917Z,160
2017-05-24T07:23:49.892Z,150
2017-05-24T07:25:00.422Z,140
2017-05-24T07:26:10.716Z,130
2017-05-24T07:27:20.688Z,130
2017-05-24T07:28:30.384Z,140
2017-05-24T07:29:40.360Z,155
2017-05-24T07:30:50.589Z,160
2017-05-24T07:32:00.939Z,155
2017-05-24T07:33:10.921Z,130
2017-05-24T07:34:21.243Z,135
2017-05-24T07:35:30.906Z,135
2017-05-24T07:36:41.434Z,140
2017-05-24T07:37:51.413Z,140
2017-05-24T07:39:01.715Z,135
2017-05-24T07:40:11.715Z,160
2017-05-24T07:41:22.068Z,165
2017-05-24T07:42:32.619Z,145
2017-05-24T07:43:43.141Z,130
2017-05-24T07:44:53.132Z,85
2017-05-24T07:46:03.420Z,105
2017-05-24T07:47:13.086Z,150
2017-05-24T07:48:23.022Z,150
2017-05-24T07:49:33.314Z,160
2017-05-24T07:50:43.282Z,155
2017-05-24T07:51:53.565Z,140
2017-05-24T07:53:03.866Z,110
2017-05-24T07:54:14.098Z,135
2017-05-24T07:55:24.382Z,145
2017-05-24T07:56:34.670Z,130
2017-05-24T07:57:44.962Z,145
2017-05-24T07:58:55.239Z,135
2017-05-24T08:00:05.775Z,130
2017-05-24T08:01:15.757Z,125
2017-05-24T08:02:26.049Z,115
2017-05-24T08:03:36.391Z,105
2017-05-24T08:04:46.374Z,105
2017-05-24T08:05:56.904Z,115
2017-05-24T08:07:06.889Z,115
2017-05-24T08:08:17.189Z,125
2017-05-24T08:09:27.185Z,125
2017-05-24T08:10:37.274Z,105
2017-05-24T08:11:47.823Z,105
2017-05-24T08:12:58.116Z,105
2017-05-24T08:14:08.414Z,105
2017-05-24T08:15:18.713Z,100
2017-05-24T08:16:28.987Z,90
2017-05-24T08:17:39.538Z,85
2017-05-24T08:18:49.508Z,85
2017-05-24T08:19:59.190Z,85
2017-05-24T08:21:09.476Z,85
2017-05-24T08:22:19.462Z,90
2017-05-24T08:23:29.771Z,95
2017-05-24T08:24:40.066Z,100
2017-05-24T08:25:50.049Z,105
2017-05-24T08:27:00.021Z,105
2017-05-24T08:28:09.996Z,120
2017-05-24T08:29:20.235Z,125
2017-05-24T08:30:30.541Z,135
2017-05-24T08:31:40.518Z,130
2017-05-24T08:32:50.503Z,120
2017-05-24T08:34:00.807Z,105
2017-05-24T08:35:11.026Z,115
2017-05-24T08:36:20.706Z,70
2017-05-24T08:37:31.062Z,50
2017-05-24T08:38:41.041Z,60
2017-05-24T08:39:50.707Z,100
2017-05-24T08:41:01.246Z,85
2017-05-24T08:42:11.526Z,55
2017-05-24T08:43:21.807Z,45
2017-05-24T08:44:32.122Z,65
2017-05-24T08:45:42.112Z,80
2017-05-24T08:46:52.663Z,50
2017-05-24T08:48:02.951Z,55
2017-05-24T08:49:13.245Z,70
2017-05-24T08:50:23.526Z,80
2017-05-24T08:51:33.817Z,85
2017-05-24T08:52:44.370Z,75
2017-05-24T08:53:54.036Z,65
2017-05-24T08:55:04.014Z,125
2017-05-24T08:56:14.307Z,155
2017-05-24T08:57:24.590Z,120
2017-05-24T08:58:35.134Z,115
2017-05-24T08:59:45.429Z,105
2017-05-24T09:00:55.395Z,120
2017-05-24T09:02:04.731Z,95
2017-05-24T09:03:14.705Z,55
2017-05-24T09:04:24.941Z,80
2017-05-24T09:05:35.434Z,75
2017-05-24T09:06:45.731Z,85
2017-05-24T09:07:56.018Z,130
2017-05-24T09:09:06.000Z,155
2017-05-24T09:10:16.226Z,160
2017-05-24T09:11:25.916Z,160
2017-05-24T09:12:36.797Z,155
2017-05-24T09:13:47.132Z,125
2017-05-24T09:14:57.430Z,165
2017-05-24T09:16:07.654Z,185
2017-05-24T09:17:17.629Z,180
2017-05-24T09:18:27.617Z,195
2017-05-24T09:19:37.916Z,205
2017-05-24T09:20:48.209Z,200
2017-05-24T09:21:58.485Z,180
2017-05-24T09:23:08.733Z,165
2017-05-24T09:24:19.055Z,135
2017-05-24T09:25:29.352Z,100
2017-05-24T09:26:39.671Z,125
2017-05-24T09:27:49.909Z,110
2017-05-24T09:28:59.903Z,110
2017-05-24T09:30:09.874Z,130
2017-05-24T09:31:20.191Z,150
2017-05-24T09:32:30.187Z,150
2017-05-24T09:33:41.065Z,125
2017-05-24T09:34:51.417Z,125
2017-05-24T09:36:01.743Z,145
2017-05-24T09:37:12.042Z,125
2017-05-24T09:38:22.342Z,110
2017-05-24T09:39:32.891Z,100
2017-05-24T09:40:43.165Z,75
2017-05-24T09:41:53.449Z,75
2017-05-24T09:43:03.440Z,90
2017-05-24T09:44:13.416Z,85
2017-05-24T09:45:23.651Z,95
2017-05-24T09:46:33.625Z,115
2017-05-24T09:47:43.915Z,120
2017-05-24T09:48:53.901Z,105
2017-05-24T09:50:04.189Z,100
2017-05-24T09:51:14.755Z,100
2017-05-24T09:52:25.036Z,100
2017-05-24T09:53:35.322Z,100
2017-05-24T09:54:45.617Z,80
2017-05-24T09:55:55.903Z,95
2017-05-24T09:57:06.438Z,105
2017-05-24T09:58:16.745Z,105
2017-05-24T09:59:27.535Z,90
2017-05-24T10:00:38.221Z,105
2017-05-24T10:01:48.509Z,90
2017-05-24T10:02:58.928Z,80
2017-05-24T10:04:09.207Z,95
2017-05-24T10:05:19.490Z,80
2017-05-24T10:06:29.775Z,110
2017-05-24T10:07:40.122Z,90
2017-05-24T10:08:50.651Z,75
2017-05-24T10:10:00.624Z,60
2017-05-24T10:11:10.926Z,50
2017-05-24T10:12:21.230Z,40
2017-05-24T10:13:31.221Z,50
2017-05-24T10:14:41.756Z,45
2017-05-24T10:15:51.417Z,65
2017-05-24T10:17:01.396Z,65
2017-05-24T10:18:11.692Z,65
2017-05-24T10:19:21.997Z,75
2017-05-24T10:20:32.557Z,105
2017-05-24T10:21:42.522Z,115
2017-05-24T10:22:52.503Z,125
2017-05-24T10:24:02.176Z,130
2017-05-24T10:25:12.147Z,125
2017-05-24T10:26:22.695Z,120
2017-05-24T10:27:32.670Z,110
2017-05-24T10:28:42.952Z,145
2017-05-24T10:29:53.247Z,145
2017-05-24T10:31:03.536Z,125
2017-05-24T10:32:14.063Z,105
2017-05-24T10:33:24.342Z,120
2017-05-24T10:34:34.639Z,130
2017-05-24T10:35:44.940Z,145
2017-05-24T10:36:54.594Z,165
2017-05-24T10:38:04.509Z,175
2017-05-24T10:39:14.811Z,185
2017-05-24T10:40:24.802Z,190
2017-05-24T10:41:35.093Z,195
2017-05-24T10:42:45.065Z,195
2017-05-24T10:43:55.624Z,205
2017-05-24T10:45:05.593Z,190
2017-05-24T10:46:15.899Z,185
2017-05-24T10:47:26.406Z,165
2017-05-24T10:48:36.391Z,180
2017-05-24T10:49:46.306Z,200
2017-05-24T10:50:56.284Z,185
2017-05-24T10:52:06.260Z,125
2017-05-24T10:53:16.549Z,115
2017-05-24T10:54:26.843Z,130
2017-05-24T10:55:37.085Z,160
2017-05-24T10:56:47.386Z,145
2017-05-24T10:57:57.685Z,165
2017-05-24T10:59:07.969Z,130
2017-05-24T11:00:17.962Z,135
2017-05-24T11:01:28.495Z,175
2017-05-24T11:02:38.494Z,170
2017-05-24T11:03:48.489Z,160
2017-05-24T11:04:58.462Z,170
2017-05-24T11:06:08.758Z,155
2017-05-24T11:07:18.985Z,125
2017-05-24T11:08:29.286Z,110
2017-05-24T11:09:39.254Z,150
2017-05-24T11:10:49.276Z,145
2017-05-24T11:11:59.664Z,135
2017-05-24T11:13:09.970Z,115
2017-05-24T11:14:20.008Z,125
2017-05-24T11:15:30.089Z,125
2017-05-24T11:16:40.397Z,115
2017-05-24T11:17:50.716Z,130
2017-05-24T11:19:00.954Z,140
2017-05-24T11:20:11.247Z,125
2017-05-24T11:21:21.584Z,125
2017-05-24T11:22:31.565Z,135
2017-05-24T11:23:41.866Z,140
2017-05-24T11:24:52.101Z,130
2017-05-24T11:26:03.036Z,115
2017-05-24T11:27:13.023Z,135
2017-05-24T11:28:23.326Z,140
2017-05-24T11:29:33.618Z,155
2017-05-24T11:30:43.835Z,175
2017-05-24T11:31:53.852Z,180
2017-05-24T11:33:04.143Z,175
2017-05-24T11:34:14.437Z,160
2017-05-24T11:35:24.778Z,155
2017-05-24T11:36:35.006Z,185
2017-05-24T11:37:45.302Z,190
2017-05-24T11:38:55.601Z,180
2017-05-24T11:40:05.901Z,185
2017-05-24T11:41:15.887Z,195
2017-05-24T11:42:26.116Z,195
2017-05-24T11:43:36.403Z,180
2017-05-24T11:44:46.380Z,170
2017-05-24T11:45:56.372Z,140
2017-05-24T11:47:06.348Z,145
2017-05-24T11:48:16.880Z,155
2017-05-24T11:49:27.175Z,170
2017-05-24T11:50:37.173Z,185
2017-05-24T11:51:46.838Z,195
2017-05-24T11:52:57.143Z,190
2017-05-24T11:54:07.371Z,170
2017-05-24T11:55:17.352Z,180
2017-05-24T11:56:27.655Z,90
2017-05-24T11:57:37.941Z,0
2017-05-24T11:58:48.227Z,0
2017-05-24T11:59:58.776Z,0
2017-05-24T12:01:09.058Z,0
2017-05-24T12:02:19.050Z,0
2017-05-24T12:03:29.350Z,0
2017-05-24T12:04:39.648Z,0
2017-05-24T12:05:50.184Z,0
2017-05-24T12:07:00.473Z,0
2017-05-24T12:08:10.769Z,0
2017-05-24T12:09:21.067Z,0
2017-05-24T12:10:31.047Z,0
2017-05-24T12:11:41.595Z,0
2017-05-24T12:12:51.909Z,0
2017-05-24T12:14:02.198Z,0
2017-05-24T12:15:12.491Z,0
2017-05-24T12:16:22.817Z,0
2017-05-24T12:17:33.358Z,0
2017-05-24T12:18:43.648Z,0
2017-05-24T12:19:53.938Z,0
2017-05-24T12:21:03.621Z,0
2017-05-24T12:22:13.908Z,0
2017-05-24T12:23:24.142Z,0
2017-05-24T12:24:34.120Z,0
2017-05-24T12:25:44.140Z,0
2017-05-24T12:26:54.115Z,0
2017-05-24T12:28:04.411Z,0
2017-05-24T12:29:14.641Z,0
2017-05-24T12:30:24.954Z,0
2017-05-24T12:31:34.931Z,0
2017-05-24T12:32:45.250Z,0
2017-05-24T12:33:55.545Z,0
2017-05-24T12:35:06.132Z,0
2017-05-24T12:36:16.420Z,0
2017-05-24T12:37:26.713Z,0
2017-05-24T12:38:36.385Z,0
2017-05-24T12:39:46.670Z,0
2017-05-24T12:40:57.210Z,0
2017-05-24T12:42:07.511Z,0
2017-05-24T12:43:17.806Z,0
2017-05-24T12:44:28.100Z,0
2017-05-24T12:45:38.393Z,0
2017-05-24T12:46:48.927Z,0
2017-05-24T12:47:59.225Z,0
2017-05-24T12:49:09.520Z,0
2017-05-24T12:50:19.812Z,0
2017-05-24T12:51:30.096Z,0
2017-05-24T12:52:40.642Z,0
2017-05-24T12:53:50.946Z,0
2017-05-24T12:55:01.248Z,0
2017-05-24T12:56:11.539Z,0
2017-05-24T12:57:21.521Z,0
2017-05-24T12:58:32.051Z,0
2017-05-24T12:59:42.345Z,0
2017-05-24T13:00:52.641Z,0
2017-05-24T13:02:02.935Z,0
2017-05-24T13:03:13.227Z,0
2017-05-24T13:04:23.766Z,0
2017-05-24T13:05:34.045Z,0
2017-05-24T13:06:44.010Z,0
2017-05-24T13:07:53.999Z,0
2017-05-24T13:09:04.291Z,0
2017-05-24T13:10:14.520Z,0
2017-05-24T13:11:24.798Z,0
2017-05-24T13:12:35.115Z,0
2017-05-24T13:13:45.404Z,0
2017-05-24T13:14:55.684Z,0
2017-05-24T13:16:06.239Z,0
2017-05-24T13:17:16.533Z,0
2017-05-24T13:18:26.816Z,0
2017-05-24T13:19:37.106Z,0
2017-05-24T13:20:47.394Z,0
2017-05-24T13:21:57.943Z,0
2017-05-24T13:23:08.291Z,0
2017-05-24T13:24:18.586Z,0
2017-05-24T13:25:28.868Z,0
2017-05-24T13:26:39.168Z,0
2017-05-24T13:27:49.701Z,0
2017-05-24T13:28:59.991Z,0
2017-05-24T13:30:09.973Z,0
2017-05-24T13:31:19.959Z,0
2017-05-24T13:32:30.262Z,0
2017-05-24T13:33:40.489Z,0
2017-05-24T13:34:50.159Z,0
2017-05-24T13:36:00.132Z,0
2017-05-24T13:37:10.418Z,0
2017-05-24T13:38:20.720Z,0
2017-05-24T13:39:31.710Z,0
2017-05-24T13:40:41.693Z,0
2017-05-24T13:41:51.676Z,0
2017-05-24T13:43:01.352Z,0
2017-05-24T13:44:11.337Z,0
2017-05-24T13:45:21.560Z,0
2017-05-24T13:46:31.846Z,0
2017-05-24T13:47:42.149Z,0
2017-05-24T13:48:52.430Z,0
2017-05-24T13:50:02.725Z,0
2017-05-24T13:51:12.949Z,0
2017-05-24T13:52:22.619Z,0
2017-05-24T13:53:32.913Z,0
2017-05-24T13:54:43.203Z,0
2017-05-24T13:55:53.482Z,0
2017-05-24T13:57:04.017Z,0
2017-05-24T13:58:14.309Z,0
2017-05-24T13:59:24.298Z,0
2017-05-24T14:00:34.596Z,0
2017-05-24T14:01:44.877Z,0
2017-05-24T14:02:55.473Z,0
2017-05-24T14:04:05.767Z,0
2017-05-24T14:05:15.752Z,0
2017-05-24T14:06:26.030Z,0
2017-05-24T14:07:36.030Z,0
2017-05-24T14:08:46.565Z,0
2017-05-24T14:09:56.858Z,0
2017-05-24T14:11:06.833Z,0
2017-05-24T14:12:17.117Z,0
2017-05-24T14:13:27.411Z,0
2017-05-24T14:14:37.967Z,0
2017-05-24T14:15:47.936Z,0
2017-05-24T14:16:57.623Z,0
2017-05-24T14:18:07.926Z,0
2017-05-24T14:19:18.215Z,0
2017-05-24T14:20:28.446Z,0
2017-05-24T14:21:38.725Z,0
2017-05-24T14:22:49.013Z,0
2017-05-24T14:23:59.309Z,0
2017-05-24T14:25:09.589Z,0
2017-05-24T14:26:20.138Z,0
2017-05-24T14:27:29.793Z,0
2017-05-24T14:28:40.085Z,0
2017-05-24T14:29:50.365Z,0
2017-05-24T14:31:00.649Z,0
2017-05-24T14:32:10.553Z,0
2017-05-24T14:33:20.528Z,0
2017-05-24T14:34:30.839Z,0
2017-05-24T14:35:40.837Z,0
2017-05-24T14:36:51.124Z,0
2017-05-24T14:38:01.668Z,0
2017-05-24T14:39:11.954Z,0
2017-05-24T14:40:22.021Z,0
2017-05-24T14:41:32.006Z,0
2017-05-24T14:42:41.980Z,0
2017-05-24T14:43:52.530Z,0
2017-05-24T14:45:02.814Z,0
2017-05-24T14:46:13.139Z,0
2017-05-24T14:47:23.419Z,0
2017-05-24T14:48:33.707Z,0
2017-05-24T14:49:43.932Z,0
2017-05-24T14:50:54.230Z,0
2017-05-24T14:52:03.889Z,0
2017-05-24T14:53:14.172Z,0
2017-05-24T14:54:24.156Z,0
2017-05-24T14:55:34.700Z,0
2017-05-24T14:56:44.691Z,0
2017-05-24T14:57:54.991Z,0
2017-05-24T14:59:05.289Z,0
2017-05-24T15:00:15.598Z,0
2017-05-24T15:01:25.817Z,0
2017-05-24T15:02:36.105Z,0
2017-05-24T15:03:46.405Z,0
2017-05-24T15:04:56.699Z,0
2017-05-24T15:06:06.982Z,0
2017-05-24T15:07:17.595Z,0
2017-05-24T15:08:27.895Z,0
2017-05-24T15:09:38.199Z,0
2017-05-24T15:10:48.485Z,0
2017-05-24T15:11:58.777Z,0
2017-05-24T15:13:09.313Z,0
2017-05-24T15:14:19.286Z,0
2017-05-24T15:15:29.253Z,0
2017-05-24T15:16:39.540Z,0
2017-05-24T15:17:49.208Z,0
2017-05-24T15:18:59.135Z,0
2017-05-24T15:20:09.428Z,0
2017-05-24T15:21:19.726Z,0
2017-05-24T15:22:29.711Z,0
2017-05-24T15:23:40.018Z,0
2017-05-24T15:24:50.250Z,0
2017-05-24T15:26:00.217Z,0
2017-05-24T15:27:10.529Z,0
2017-05-24T15:28:20.539Z,0
2017-05-24T15:29:30.533Z,0
2017-05-24T15:30:41.079Z,0
2017-05-24T15:31:51.053Z,0
2017-05-24T15:33:01.149Z,0
2017-05-24T15:34:11.130Z,0
2017-05-24T15:35:21.421Z,0
2017-05-24T15:36:31.983Z,0
2017-05-24T15:37:41.969Z,0
2017-05-24T15:38:52.255Z,0
2017-05-24T15:40:02.256Z,0
2017-05-24T15:41:12.549Z,0
2017-05-24T15:42:23.105Z,0
2017-05-24T15:43:33.078Z,0
2017-05-24T15:44:43.361Z,0
2017-05-24T15:45:53.646Z,0
2017-05-24T15:47:03.644Z,0
2017-05-24T15:48:14.193Z,0
2017-05-24T15:49:24.163Z,0
2017-05-24T15:50:34.448Z,0
2017-05-24T15:51:44.428Z,0
2017-05-24T15:52:54.742Z,0
2017-05-24T15:54:05.284Z,0
2017-05-24T15:55:15.579Z,0
2017-05-24T15:56:25.859Z,0
2017-05-24T15:57:36.196Z,0
2017-05-24T15:58:46.487Z,0
2017-05-24T15:59:57.033Z,0
2017-05-24T16:01:07.020Z,0
2017-05-24T16:02:17.306Z,0
2017-05-24T16:03:26.977Z,0
2017-05-24T16:04:36.954Z,0
2017-05-24T16:05:46.878Z,0
2017-05-24T16:06:57.161Z,0
2017-05-24T16:08:07.452Z,0
2017-05-24T16:09:17.733Z,0
2017-05-24T16:10:27.709Z,0
2017-05-24T16:11:37.931Z,0
2017-05-24T16:12:47.899Z,0
2017-05-24T16:13:57.564Z,0
2017-05-24T16:15:07.856Z,0
2017-05-24T16:16:18.149Z,0
2017-05-24T16:17:28.683Z,0
2017-05-24T16:18:38.973Z,0
2017-05-24T16:19:48.955Z,0
2017-05-24T16:20:58.928Z,0
2017-05-24T16:22:09.208Z,0
2017-05-24T16:23:19.749Z,0
2017-05-24T16:24:30.049Z,0
2017-05-24T16:25:40.337Z,0
2017-05-24T16:26:50.312Z,0
2017-05-24T16:28:00.294Z,0
2017-05-24T16:29:10.832Z,0
2017-05-24T16:30:20.805Z,0
2017-05-24T16:31:31.095Z,0
2017-05-24T16:32:41.072Z,0
2017-05-24T16:33:51.055Z,0
2017-05-24T16:35:01.592Z,0
2017-05-24T16:36:11.897Z,0
2017-05-24T16:37:22.185Z,0
2017-05-24T16:38:32.476Z,0
2017-05-24T16:39:42.454Z,0
2017-05-24T16:40:52.988Z,0
2017-05-24T16:42:02.970Z,0
2017-05-24T16:43:13.267Z,0
2017-05-24T16:44:23.557Z,0
2017-05-24T16:45:33.858Z,0
2017-05-24T16:46:44.091Z,0
2017-05-24T16:47:54.389Z,0
2017-05-24T16:49:04.682Z,0
2017-05-24T16:50:14.654Z,0
2017-05-24T16:51:24.938Z,0